Time;durP1;ratioP1;P1;durP2;ratioP2;P2;SDS_P1;SDS_P2;PMS_P1;PMS_P2;Temp;Humidity;BMP_temperature;BMP_pressure;BME280_temperature;BME280_humidity;BME280_pressure;Samples;Min_cycle;Max_cycle;Signal;HPM_P1;HPM_P2
2023/10/15 00:01:52;;;;;;;5.90;1.02;;;7.50;94.00;;;;;;4794727;29;20047;-58
2023/10/15 00:04:18;;;;;;;6.82;1.05;;;7.50;95.60;;;;;;4795189;29;20088;-58
2023/10/15 00:06:43;;;;;;;8.70;1.20;;;7.50;95.30;;;;;;4797582;29;20094;-58
2023/10/15 00:09:09;;;;;;;9.45;1.40;;;7.40;80.90;;;;;;4812865;29;20031;-58
2023/10/15 00:11:36;;;;;;;9.38;1.20;;;7.40;70.90;;;;;;4813023;29;20063;-58
2023/10/15 00:14:04;;;;;;;6.82;1.13;;;7.40;77.30;;;;;;4812714;29;20084;-59
2023/10/15 00:16:31;;;;;;;7.20;1.15;;;7.30;72.60;;;;;;4812801;29;20071;-58
2023/10/15 00:18:57;;;;;;;5.68;1.05;;;7.40;65.40;;;;;;4812316;29;20066;-58
2023/10/15 00:21:23;;;;;;;7.63;1.40;;;7.20;57.10;;;;;;4813245;29;20051;-58
2023/10/15 00:23:49;;;;;;;9.73;2.08;;;7.30;42.60;;;;;;4812468;29;20372;-58
2023/10/15 00:26:15;;;;;;;6.75;1.00;;;7.30;34.40;;;;;;4812430;29;20131;-58
2023/10/15 00:28:44;;;;;;;10.40;2.05;;;7.30;29.90;;;;;;4812432;29;20062;-58
2023/10/15 00:31:13;;;;;;;6.97;1.23;;;7.40;22.10;;;;;;4812103;29;20076;-58
2023/10/15 00:33:46;;;;;;;4.63;1.00;;;7.40;12.10;;;;;;4805102;29;20058;-58
2023/10/15 00:36:13;;;;;;;9.15;1.38;;;7.50;2.40;;;;;;4794047;29;20118;-58
2023/10/15 00:38:46;;;;;;;6.97;1.38;;;7.50;1.00;;;;;;4794720;29;20131;-58
2023/10/15 00:41:13;;;;;;;8.10;1.30;;;7.50;1.00;;;;;;4794478;29;20485;-59
2023/10/15 00:43:54;;;;;;;6.32;1.30;;;7.60;1.00;;;;;;4792232;30;20139;-59
2023/10/15 00:46:22;;;;;;;8.95;1.60;;;7.50;1.00;;;;;;4794306;29;20054;-58
2023/10/15 00:48:49;;;;;;;4.20;1.20;;;7.50;1.00;;;;;;4794004;29;20051;-58
2023/10/15 00:51:17;;;;;;;12.27;1.30;;;7.50;2.80;;;;;;4794392;29;20063;-58
2023/10/15 00:53:50;;;;;;;6.13;1.08;;;7.50;5.20;;;;;;4794154;29;20440;-58
2023/10/15 00:56:25;;;;;;;5.68;1.10;;;7.50;12.50;;;;;;4793880;29;20047;-58
2023/10/15 01:03:53;;;;;;;5.28;1.00;;;7.30;29.40;;;;;;4794075;29;20051;-58
2023/10/15 01:06:49;;;;;;;5.35;1.00;;;7.40;37.00;;;;;;4793715;29;20070;-58
2023/10/15 01:09:27;;;;;;;7.75;1.38;;;7.40;36.80;;;;;;4793573;30;20122;-59
2023/10/15 01:11:56;;;;;;;8.35;1.15;;;7.40;43.80;;;;;;4792381;30;20134;-58
2023/10/15 01:17:02;;;;;;;9.85;1.60;;;7.40;37.60;;;;;;4794091;29;20087;-58
2023/10/15 01:19:33;;;;;;;9.07;1.45;;;7.40;34.70;;;;;;4793565;29;20047;-58
2023/10/15 01:22:02;;;;;;;8.88;1.50;;;7.60;49.20;;;;;;4793813;29;20062;-59
2023/10/15 01:24:38;;;;;;;7.70;1.90;;;7.70;52.80;;;;;;4793720;29;20088;-58
2023/10/15 01:27:09;;;;;;;9.13;1.90;;;7.50;51.20;;;;;;4793695;29;20051;-58
2023/10/15 01:29:45;;;;;;;11.93;1.40;;;7.50;37.30;;;;;;4793611;29;20088;-58
2023/10/15 01:35:10;;;;;;;9.75;1.40;;;7.20;99.90;;;;;;4771097;30;20055;-66
2023/10/15 01:37:37;;;;;;;11.40;1.40;;;6.90;99.90;;;;;;4774559;30;20060;-66
2023/10/15 01:42:34;;;;;;;7.05;1.30;;;6.80;99.90;;;;;;4774573;30;20050;-65
2023/10/15 01:47:44;;;;;;;11.35;1.65;;;6.80;99.90;;;;;;4775569;30;20075;-62
2023/10/15 01:50:15;;;;;;;9.43;1.42;;;6.90;99.90;;;;;;4774623;30;20048;-62
2023/10/15 01:52:42;;;;;;;9.07;1.10;;;6.90;99.90;;;;;;4775224;30;20056;-60
2023/10/15 01:55:08;;;;;;;7.97;1.20;;;6.80;99.90;;;;;;4777520;30;20382;-60
2023/10/15 01:57:37;;;;;;;6.30;1.27;;;6.80;99.90;;;;;;4778817;30;20066;-59
2023/10/15 02:03:02;;;;;;;5.47;1.02;;;6.90;99.90;;;;;;4773642;30;20055;-59
2023/10/15 02:05:46;;;;;;;10.07;3.08;;;6.80;99.90;;;;;;4779005;30;20085;-59
2023/10/15 02:08:24;;;;;;;8.13;1.45;;;6.80;99.90;;;;;;4779169;30;20077;-59
2023/10/15 02:10:51;;;;;;;5.43;1.13;;;6.90;99.90;;;;;;4778888;30;20055;-58
2023/10/15 02:13:20;;;;;;;5.43;0.90;;;6.90;99.90;;;;;;4779110;30;20044;-59
2023/10/15 02:15:49;;;;;;;5.72;0.98;;;7.10;99.90;;;;;;4779225;30;20055;-59
2023/10/15 02:18:17;;;;;;;6.22;0.90;;;6.90;99.90;;;;;;4778652;30;20051;-58
2023/10/15 02:23:19;;;;;;;11.75;1.20;;;6.80;99.90;;;;;;4778407;30;20346;-59
2023/10/15 02:25:58;;;;;;;8.00;1.27;;;7.00;99.90;;;;;;4778722;30;20497;-58
2023/10/15 02:28:31;;;;;;;6.18;0.90;;;6.70;99.90;;;;;;4778612;30;20132;-58
2023/10/15 02:33:30;;;;;;;4.47;1.17;;;6.70;99.90;;;;;;4784625;30;20504;-59
2023/10/15 02:35:59;;;;;;;4.30;0.70;;;6.90;99.90;;;;;;4796386;29;20104;-59
2023/10/15 02:38:26;;;;;;;7.03;1.23;;;6.50;99.90;;;;;;4796520;29;20072;-58
2023/10/15 02:41:03;;;;;;;4.75;1.33;;;6.60;99.90;;;;;;4803668;29;20626;-59
2023/10/15 02:43:29;;;;;;;5.93;1.00;;;6.50;99.90;;;;;;4814225;29;20097;-60
2023/10/15 02:46:00;;;;;;;7.78;1.13;;;6.40;99.90;;;;;;4814356;29;20042;-62
2023/10/15 02:48:26;;;;;;;8.90;1.00;;;6.40;99.90;;;;;;4814085;29;20047;-62
2023/10/15 02:51:00;;;;;;;9.27;1.20;;;6.40;99.90;;;;;;4814282;29;20051;-60
2023/10/15 02:53:27;;;;;;;7.40;0.93;;;6.40;99.90;;;;;;4812544;29;20562;-60
2023/10/15 02:55:58;;;;;;;5.13;1.15;;;6.40;99.90;;;;;;4813843;29;20069;-60
2023/10/15 02:58:28;;;;;;;5.57;1.08;;;6.50;99.90;;;;;;4814365;29;20051;-59
2023/10/15 03:01:00;;;;;;;4.90;0.85;;;6.60;99.90;;;;;;4813935;29;20069;-58
2023/10/15 03:03:34;;;;;;;5.38;1.23;;;6.60;99.90;;;;;;4813985;29;20051;-60
2023/10/15 03:06:09;;;;;;;7.22;0.77;;;6.70;99.90;;;;;;4813031;29;20505;-59
2023/10/15 03:08:36;;;;;;;5.85;0.90;;;6.60;99.90;;;;;;4814285;29;20492;-59
2023/10/15 03:11:12;;;;;;;5.47;0.90;;;6.70;99.90;;;;;;4813865;29;20513;-59
2023/10/15 03:14:03;;;;;;;5.88;1.52;;;6.80;99.90;;;;;;4813647;29;20112;-59
2023/10/15 03:16:30;;;;;;;3.45;0.75;;;6.80;99.90;;;;;;4812165;29;20050;-59
2023/10/15 03:19:04;;;;;;;6.30;1.02;;;6.80;99.90;;;;;;4813483;29;20050;-62
2023/10/15 03:21:30;;;;;;;7.93;0.80;;;6.70;99.90;;;;;;4814100;29;20047;-67
2023/10/15 03:23:57;;;;;;;4.50;0.73;;;6.80;99.90;;;;;;4813300;29;20062;-66
2023/10/15 03:26:24;;;;;;;5.80;1.27;;;6.60;99.90;;;;;;4777015;30;20051;-66
2023/10/15 03:28:58;;;;;;;3.35;0.75;;;6.60;99.90;;;;;;4776337;30;20103;-67
2023/10/15 03:31:25;;;;;;;5.63;0.80;;;6.60;99.90;;;;;;4776295;30;20055;-65
2023/10/15 03:36:50;;;;;;;6.20;0.80;;;6.30;99.90;;;;;;4795471;29;20062;-66
2023/10/15 03:44:49;;;;;;;4.88;1.00;;;6.40;99.90;;;;;;4795091;29;20067;-63
2023/10/15 03:47:22;;;;;;;4.40;1.10;;;6.40;99.90;;;;;;4795267;29;20058;-62
2023/10/15 03:49:51;;;;;;;6.15;0.85;;;6.40;99.90;;;;;;4794023;29;20057;-62
2023/10/15 03:52:20;;;;;;;5.80;0.70;;;6.30;99.90;;;;;;4794867;29;20047;-60
2023/10/15 03:54:50;;;;;;;6.43;0.60;;;6.50;99.90;;;;;;4794891;29;20062;-61
2023/10/15 03:57:23;;;;;;;3.88;0.70;;;6.40;99.90;;;;;;4795033;29;20039;-60
2023/10/15 03:59:52;;;;;;;5.18;0.60;;;6.40;99.90;;;;;;4795089;29;20047;-64
2023/10/15 04:02:22;;;;;;;4.55;0.75;;;6.50;99.90;;;;;;4795051;29;20059;-67
2023/10/15 04:05:28;;;;;;;5.78;0.80;;;6.50;99.90;;;;;;4794923;29;20126;-66
2023/10/15 04:07:53;;;;;;;3.78;0.70;;;6.50;99.90;;;;;;4793577;30;20055;-67
2023/10/15 04:10:33;;;;;;;4.00;0.70;;;6.20;99.90;;;;;;4794124;29;20114;-67
2023/10/15 04:12:59;;;;;;;5.05;0.95;;;6.40;99.90;;;;;;4795089;29;20059;-65
2023/10/15 04:15:25;;;;;;;5.13;0.80;;;6.30;99.90;;;;;;4794814;29;20067;-65
2023/10/15 04:17:51;;;;;;;3.38;0.68;;;6.50;99.90;;;;;;4793770;29;20069;-63
2023/10/15 04:20:26;;;;;;;2.53;0.50;;;6.50;99.90;;;;;;4793398;30;20066;-63
2023/10/15 04:22:53;;;;;;;2.75;0.63;;;6.30;99.90;;;;;;4792846;30;20051;-65
2023/10/15 04:25:26;;;;;;;5.75;0.70;;;6.60;99.90;;;;;;4794265;29;20051;-65
2023/10/15 04:27:55;;;;;;;4.93;0.73;;;6.50;99.90;;;;;;4794258;29;20151;-64
2023/10/15 04:30:21;;;;;;;6.90;0.80;;;6.30;99.90;;;;;;4794397;29;20111;-65
2023/10/15 04:32:47;;;;;;;8.85;0.90;;;6.20;99.90;;;;;;4794612;29;20059;-64
2023/10/15 04:35:17;;;;;;;4.38;0.73;;;6.20;99.90;;;;;;4793973;29;20089;-63
2023/10/15 04:37:45;;;;;;;4.13;1.35;;;6.40;99.90;;;;;;4794449;29;20095;-62
2023/10/15 04:40:11;;;;;;;5.55;0.80;;;6.40;99.90;;;;;;4794191;29;20495;-61
2023/10/15 04:42:43;;;;;;;5.93;0.80;;;6.40;99.90;;;;;;4794658;29;20076;-60
2023/10/15 04:45:23;;;;;;;4.97;0.93;;;6.20;99.90;;;;;;4794140;29;20289;-59
2023/10/15 04:47:59;;;;;;;4.65;0.90;;;6.20;99.90;;;;;;4794126;29;20093;-58
2023/10/15 04:50:29;;;;;;;7.55;0.90;;;6.10;99.90;;;;;;4794097;29;20524;-58
2023/10/15 04:53:12;;;;;;;5.75;0.98;;;6.30;99.90;;;;;;4792574;30;20051;-58
2023/10/15 04:55:42;;;;;;;5.13;1.38;;;6.20;99.90;;;;;;4807970;29;20432;-58
2023/10/15 04:58:09;;;;;;;8.65;1.10;;;6.30;99.90;;;;;;4810472;29;20054;-57
2023/10/15 05:00:35;;;;;;;7.25;0.80;;;6.30;99.90;;;;;;4812103;29;20054;-57
2023/10/15 05:03:02;;;;;;;4.72;0.70;;;6.30;99.90;;;;;;4812045;29;20062;-57
2023/10/15 05:05:28;;;;;;;7.70;1.20;;;6.40;99.90;;;;;;4811863;29;20099;-57
2023/10/15 05:07:57;;;;;;;6.72;1.63;;;6.40;99.90;;;;;;4810708;29;20074;-58
2023/10/15 05:10:23;;;;;;;3.53;0.63;;;6.40;99.90;;;;;;4811549;29;20500;-58
2023/10/15 05:12:51;;;;;;;7.43;0.77;;;6.40;99.90;;;;;;4812120;29;20050;-58
2023/10/15 05:15:18;;;;;;;4.65;0.68;;;6.50;99.90;;;;;;4811853;29;20050;-57
2023/10/15 05:17:46;;;;;;;4.45;0.98;;;6.10;99.90;;;;;;4811903;29;20416;-58
2023/10/15 05:20:13;;;;;;;4.07;0.70;;;6.30;99.90;;;;;;4811982;29;20077;-58
2023/10/15 05:22:42;;;;;;;4.70;0.77;;;6.50;99.90;;;;;;4811549;29;20051;-57
2023/10/15 05:25:20;;;;;;;3.85;0.60;;;6.30;99.90;;;;;;4811539;29;20467;-58
2023/10/15 05:27:51;;;;;;;8.25;1.00;;;6.40;99.90;;;;;;4811280;29;20118;-57
2023/10/15 05:30:17;;;;;;;4.38;0.82;;;6.40;99.90;;;;;;4811732;29;20051;-57
2023/10/15 05:32:44;;;;;;;6.90;1.75;;;6.30;99.90;;;;;;4808986;29;20452;-60
2023/10/15 05:35:10;;;;;;;4.82;0.95;;;6.10;99.90;;;;;;4789782;29;20756;-60
2023/10/15 05:37:36;;;;;;;3.78;0.50;;;6.00;99.90;;;;;;4789845;29;20051;-57
2023/10/15 05:40:05;;;;;;;7.43;1.00;;;5.90;99.90;;;;;;4789874;29;20611;-58
2023/10/15 05:42:31;;;;;;;6.32;0.80;;;6.40;99.90;;;;;;4790203;29;20047;-64
2023/10/15 05:44:57;;;;;;;4.28;0.70;;;6.20;99.90;;;;;;4788230;29;20789;-62
2023/10/15 05:47:23;;;;;;;2.97;0.57;;;6.30;99.90;;;;;;4788942;30;20062;-64
2023/10/15 05:49:49;;;;;;;5.03;0.93;;;6.40;99.90;;;;;;4790407;29;20083;-63
2023/10/15 05:52:15;;;;;;;6.15;0.82;;;6.40;99.90;;;;;;4788032;30;20066;-63
2023/10/15 05:54:41;;;;;;;2.83;0.50;;;6.30;99.90;;;;;;4789804;29;20119;-60
2023/10/15 05:57:07;;;;;;;5.00;0.80;;;6.30;99.90;;;;;;4789711;29;20420;-59
2023/10/15 05:59:35;;;;;;;6.93;0.75;;;6.50;99.90;;;;;;4790382;29;20302;-59
2023/10/15 06:02:02;;;;;;;2.20;0.57;;;6.60;99.90;;;;;;4789432;29;20055;-58
2023/10/15 06:04:28;;;;;;;3.97;0.68;;;6.30;99.90;;;;;;4789970;29;20062;-58
2023/10/15 06:06:55;;;;;;;6.03;0.60;;;6.60;99.90;;;;;;4789845;29;20520;-58
2023/10/15 06:09:21;;;;;;;9.00;0.95;;;6.60;99.90;;;;;;4789156;29;20059;-66
2023/10/15 06:11:47;;;;;;;5.85;0.80;;;5.90;99.90;;;;;;4789798;29;20055;-74
2023/10/15 06:14:13;;;;;;;9.13;0.90;;;5.90;99.90;;;;;;4758514;30;20328;-74
2023/10/15 06:16:39;;;;;;;7.55;1.38;;;5.40;99.90;;;;;;4789872;29;20059;-66
2023/10/15 06:19:05;;;;;;;8.38;1.42;;;5.40;99.90;;;;;;4789283;29;20066;-65
2023/10/15 06:21:32;;;;;;;11.65;1.15;;;5.60;99.90;;;;;;4789168;29;20047;-65
2023/10/15 06:23:58;;;;;;;7.88;1.08;;;5.50;99.90;;;;;;4788597;30;20047;-65
2023/10/15 06:26:24;;;;;;;3.80;1.08;;;5.80;99.90;;;;;;4789369;29;20057;-65
2023/10/15 06:28:50;;;;;;;9.95;1.52;;;5.40;99.90;;;;;;4788069;29;20532;-64
2023/10/15 06:31:16;;;;;;;9.68;1.10;;;6.10;99.90;;;;;;4789214;29;20059;-63
2023/10/15 06:33:42;;;;;;;5.20;0.80;;;6.10;99.90;;;;;;4789113;29;20052;-62
2023/10/15 06:36:07;;;;;;;9.82;1.05;;;6.20;99.90;;;;;;4789038;29;20107;-60
2023/10/15 06:38:33;;;;;;;12.35;1.05;;;6.30;99.90;;;;;;4789701;29;20040;-60
2023/10/15 06:41:02;;;;;;;8.60;0.95;;;6.40;99.90;;;;;;4790159;29;20059;-59
2023/10/15 06:43:29;;;;;;;4.53;0.77;;;6.30;99.90;;;;;;4792654;29;20055;-59
2023/10/15 06:45:55;;;;;;;9.25;1.00;;;6.20;99.90;;;;;;4792545;29;20620;-58
2023/10/15 06:48:22;;;;;;;7.97;0.93;;;6.10;99.90;;;;;;4792403;29;20143;-58
2023/10/15 06:50:48;;;;;;;10.27;1.15;;;6.00;99.90;;;;;;4792632;29;20051;-58
2023/10/15 06:53:14;;;;;;;7.18;1.30;;;6.30;99.90;;;;;;4792332;29;20059;-58
2023/10/15 06:55:45;;;;;;;3.70;1.13;;;5.80;99.90;;;;;;4792669;29;20053;-66
2023/10/15 06:58:12;;;;;;;4.50;1.08;;;5.40;99.90;;;;;;4792251;29;20063;-65
2023/10/15 07:00:38;;;;;;;8.55;0.98;;;5.20;99.90;;;;;;4791229;29;20047;-66
2023/10/15 07:03:04;;;;;;;6.32;1.70;;;5.70;99.90;;;;;;4792417;29;20067;-66
2023/10/15 07:05:29;;;;;;;3.25;0.70;;;5.40;99.90;;;;;;4776126;30;20059;-64
2023/10/15 07:07:59;;;;;;;7.22;1.00;;;5.50;99.90;;;;;;4792462;29;20050;-64
2023/10/15 07:10:25;;;;;;;5.32;0.70;;;5.30;99.90;;;;;;4791131;29;20287;-62
2023/10/15 07:12:51;;;;;;;4.22;1.30;;;5.50;99.90;;;;;;4788431;30;20083;-61
2023/10/15 07:15:20;;;;;;;5.03;0.82;;;5.20;99.90;;;;;;4792310;29;20054;-61
2023/10/15 07:17:46;;;;;;;7.47;1.23;;;5.20;99.90;;;;;;4791666;29;20051;-60
2023/10/15 07:20:18;;;;;;;5.00;0.85;;;5.70;99.90;;;;;;4792303;29;20089;-59
2023/10/15 07:22:49;;;;;;;7.75;1.23;;;5.40;99.90;;;;;;4792004;29;20051;-58
2023/10/15 07:25:19;;;;;;;6.35;0.90;;;6.00;99.90;;;;;;4792199;29;20891;-57
2023/10/15 07:27:46;;;;;;;7.95;0.90;;;5.60;99.90;;;;;;4791660;29;20600;-58
2023/10/15 07:30:13;;;;;;;5.47;0.90;;;6.20;99.90;;;;;;4791691;29;20066;-58
2023/10/15 07:32:40;;;;;;;4.47;0.82;;;6.00;99.90;;;;;;4791643;29;20055;-58
2023/10/15 07:35:07;;;;;;;7.85;1.00;;;5.70;99.90;;;;;;4773736;30;20058;-58
2023/10/15 07:37:36;;;;;;;4.65;1.00;;;5.60;99.90;;;;;;4774083;30;20083;-58
2023/10/15 07:40:06;;;;;;;5.60;0.88;;;5.90;99.90;;;;;;4773997;30;20123;-58
2023/10/15 07:42:35;;;;;;;7.70;1.00;;;6.00;99.90;;;;;;4774031;30;20048;-58
2023/10/15 07:45:02;;;;;;;8.77;1.05;;;6.20;99.90;;;;;;4773452;30;20091;-58
2023/10/15 07:47:28;;;;;;;7.85;1.10;;;5.70;99.90;;;;;;4774008;30;20063;-57
2023/10/15 07:49:53;;;;;;;8.82;0.90;;;5.60;99.90;;;;;;4772556;30;20052;-58
2023/10/15 07:52:19;;;;;;;5.65;1.30;;;6.00;99.90;;;;;;4773090;30;20044;-64
2023/10/15 07:54:45;;;;;;;7.38;1.42;;;5.60;99.90;;;;;;4773533;30;20067;-63
2023/10/15 07:57:12;;;;;;;11.52;2.55;;;6.10;99.90;;;;;;4771254;30;20090;-62
2023/10/15 07:59:38;;;;;;;8.85;1.10;;;5.90;99.90;;;;;;4773973;30;20064;-62
2023/10/15 08:02:03;;;;;;;8.63;1.17;;;5.90;99.90;;;;;;4773473;30;20055;-61
2023/10/15 08:04:29;;;;;;;7.88;1.15;;;6.00;99.90;;;;;;4773750;30;20083;-60
2023/10/15 08:06:55;;;;;;;10.45;1.15;;;6.40;99.90;;;;;;4772645;30;20113;-60
2023/10/15 08:09:21;;;;;;;10.40;1.30;;;5.90;99.90;;;;;;4771831;30;20105;-59
2023/10/15 08:11:47;;;;;;;3.92;0.88;;;5.90;99.90;;;;;;4771848;30;20062;-59
2023/10/15 08:14:13;;;;;;;6.75;1.08;;;6.20;99.90;;;;;;4773182;30;20121;-57
2023/10/15 08:16:38;;;;;;;8.70;1.05;;;6.50;99.90;;;;;;4773586;30;20486;-58
2023/10/15 08:19:07;;;;;;;6.82;0.82;;;6.20;99.90;;;;;;4773101;30;20051;-58
2023/10/15 08:21:33;;;;;;;7.50;1.98;;;6.30;99.90;;;;;;4773210;30;20054;-58
2023/10/15 08:23:58;;;;;;;9.07;1.10;;;6.60;99.90;;;;;;4773377;30;20127;-58
2023/10/15 08:26:24;;;;;;;6.45;1.10;;;6.40;99.90;;;;;;4772635;30;20113;-58
2023/10/15 08:28:49;;;;;;;5.80;1.13;;;6.60;99.90;;;;;;4772908;30;20108;-58
2023/10/15 08:31:15;;;;;;;8.15;1.40;;;6.40;99.90;;;;;;4771365;30;20067;-58
2023/10/15 08:33:41;;;;;;;7.45;1.20;;;6.70;99.90;;;;;;4779247;30;20102;-58
2023/10/15 08:36:07;;;;;;;8.90;1.42;;;7.10;99.90;;;;;;4790778;29;20052;-58
2023/10/15 08:38:34;;;;;;;12.90;2.17;;;7.20;99.90;;;;;;4791051;29;20134;-58
2023/10/15 08:41:04;;;;;;;14.07;1.30;;;7.30;99.90;;;;;;4790877;29;20584;-58
2023/10/15 08:43:32;;;;;;;7.53;1.02;;;7.40;99.90;;;;;;4790571;29;20128;-58
2023/10/15 08:46:01;;;;;;;10.30;1.33;;;6.90;99.90;;;;;;4790340;29;20054;-58
2023/10/15 08:48:28;;;;;;;10.95;1.38;;;6.80;99.90;;;;;;4790555;29;20040;-57
2023/10/15 08:50:57;;;;;;;9.05;2.08;;;6.80;99.90;;;;;;4790747;29;20489;-58
2023/10/15 08:53:25;;;;;;;11.70;1.20;;;6.70;99.90;;;;;;4790127;29;20046;-58
2023/10/15 08:55:57;;;;;;;6.32;1.10;;;6.80;99.90;;;;;;4789228;30;20050;-58
2023/10/15 08:58:25;;;;;;;9.05;1.15;;;6.90;99.90;;;;;;4790604;29;20055;-57
2023/10/15 09:00:57;;;;;;;8.25;1.10;;;6.80;99.90;;;;;;4790413;29;20104;-58
2023/10/15 09:03:24;;;;;;;10.25;1.10;;;7.00;99.90;;;;;;4788879;30;20055;-57
2023/10/15 09:05:53;;;;;;;7.80;1.45;;;7.10;99.90;;;;;;4791046;29;20047;-57
2023/10/15 09:08:20;;;;;;;5.60;0.90;;;7.40;99.90;;;;;;4793583;29;20063;-58
2023/10/15 09:10:46;;;;;;;3.95;0.80;;;7.70;99.90;;;;;;4792579;29;20035;-57
2023/10/15 09:13:16;;;;;;;7.72;1.23;;;7.90;99.90;;;;;;4792789;29;20047;-57
2023/10/15 09:15:45;;;;;;;7.18;1.35;;;8.00;99.90;;;;;;4793024;29;20050;-59
2023/10/15 09:18:11;;;;;;;6.25;1.02;;;8.10;99.90;;;;;;4792519;30;20053;-58
2023/10/15 09:20:42;;;;;;;3.88;0.88;;;8.00;99.90;;;;;;4792835;29;20043;-58
2023/10/15 09:23:09;;;;;;;3.10;0.70;;;7.90;72.80;;;;;;4789899;30;20085;-58
2023/10/15 09:25:35;;;;;;;6.55;0.80;;;7.70;56.50;;;;;;4793336;30;20138;-59
2023/10/15 09:28:01;;;;;;;4.28;0.77;;;7.60;64.90;;;;;;4793080;29;20059;-58
2023/10/15 09:30:30;;;;;;;5.07;1.00;;;7.50;53.30;;;;;;4792869;29;20452;-58
2023/10/15 09:32:57;;;;;;;6.13;1.05;;;7.50;45.10;;;;;;4792784;30;20178;-58
2023/10/15 09:35:23;;;;;;;3.30;0.60;;;7.40;53.90;;;;;;4792675;29;20055;-58
2023/10/15 09:37:49;;;;;;;4.97;1.30;;;7.40;56.40;;;;;;4793557;29;20047;-58
2023/10/15 09:40:23;;;;;;;3.45;0.68;;;7.40;75.30;;;;;;4791563;30;20082;-58
2023/10/15 09:42:55;;;;;;;3.22;0.80;;;7.60;85.40;;;;;;4792105;29;20114;-57
2023/10/15 09:45:24;;;;;;;6.35;0.77;;;7.90;94.50;;;;;;4792353;30;20465;-58
2023/10/15 09:47:57;;;;;;;6.95;1.10;;;8.10;68.80;;;;;;4792950;30;20070;-57
2023/10/15 09:50:25;;;;;;;6.68;1.17;;;8.40;41.40;;;;;;4793299;30;20059;-57
2023/10/15 09:53:00;;;;;;;7.88;1.17;;;8.70;23.50;;;;;;4791616;29;20090;-58
2023/10/15 09:55:28;;;;;;;5.85;1.40;;;9.20;5.30;;;;;;4793404;29;20097;-58
2023/10/15 09:57:55;;;;;;;4.65;1.15;;;9.40;13.90;;;;;;4788942;30;20080;-57
2023/10/15 10:00:46;;;;;;;10.57;1.30;;;9.50;1.00;;;;;;4789913;29;20079;-57
2023/10/15 10:03:47;;;;;;;9.88;2.17;;;9.50;1.00;;;;;;4789703;30;20430;-56
2023/10/15 10:06:37;;;;;;;3.97;0.80;;;9.20;1.00;;;;;;4789629;29;20083;-57
2023/10/15 10:09:24;;;;;;;3.95;0.85;;;9.00;1.00;;;;;;4789351;29;20051;-57
2023/10/15 10:11:56;;;;;;;3.47;0.70;;;9.00;1.00;;;;;;4788173;30;20055;-56
2023/10/15 10:14:46;;;;;;;2.38;0.50;;;8.90;1.00;;;;;;4789199;29;20054;-57
2023/10/15 10:17:14;;;;;;;2.05;0.75;;;8.50;1.00;;;;;;4791760;29;20059;-57
2023/10/15 10:19:41;;;;;;;2.78;0.50;;;8.60;1.00;;;;;;4793320;29;20081;-57
2023/10/15 10:22:22;;;;;;;7.57;1.73;;;8.80;1.00;;;;;;4792293;29;20089;-58
2023/10/15 10:24:48;;;;;;;9.80;0.95;;;9.00;1.00;;;;;;4792554;29;20086;-57
2023/10/15 10:27:15;;;;;;;3.05;0.85;;;9.20;1.00;;;;;;4792430;30;20499;-55
2023/10/15 10:29:50;;;;;;;7.32;0.93;;;9.30;1.00;;;;;;4793076;30;20473;-58
2023/10/15 10:32:17;;;;;;;5.13;0.75;;;9.30;1.00;;;;;;4792595;29;20055;-58
2023/10/15 10:34:45;;;;;;;5.20;0.73;;;9.60;1.00;;;;;;4792945;29;20391;-58
2023/10/15 10:37:31;;;;;;;5.07;0.75;;;9.90;1.00;;;;;;4793140;29;20081;-58
2023/10/15 10:39:59;;;;;;;3.10;0.60;;;10.00;1.00;;;;;;4792646;29;20055;-60
2023/10/15 10:42:26;;;;;;;5.60;0.93;;;9.70;1.00;;;;;;4792867;29;20561;-65
2023/10/15 10:44:58;;;;;;;6.20;0.90;;;9.20;1.00;;;;;;4792271;29;20043;-65
2023/10/15 10:47:28;;;;;;;;;;;8.80;6.50;;;;;;4793161;29;20058;-64
2023/10/15 10:50:00;;;;;;;7.38;0.93;;;8.40;61.40;;;;;;4790965;30;19933;-66
2023/10/15 10:52:35;;;;;;;7.65;1.05;;;8.20;59.00;;;;;;4791790;29;20063;-65
2023/10/15 10:55:32;;;;;;;9.68;1.23;;;8.10;96.60;;;;;;4789860;30;20066;-63
2023/10/15 10:58:00;;;;;;;5.05;0.73;;;8.00;99.90;;;;;;4791523;30;20051;-62
2023/10/15 11:00:30;;;;;;;5.07;1.33;;;8.10;99.90;;;;;;4790713;29;20143;-61
2023/10/15 11:02:59;;;;;;;7.78;0.93;;;8.20;99.90;;;;;;4792061;29;20051;-60
2023/10/15 11:05:25;;;;;;;7.55;1.15;;;8.40;99.90;;;;;;4791342;29;20057;-60
2023/10/15 11:07:52;;;;;;;7.10;1.30;;;8.60;99.90;;;;;;4791860;30;20108;-59
2023/10/15 11:10:17;;;;;;;8.45;2.05;;;8.80;99.90;;;;;;4791600;29;20098;-58
2023/10/15 11:12:46;;;;;;;5.90;1.05;;;9.10;90.90;;;;;;4791954;29;20082;-58
2023/10/15 11:15:14;;;;;;;6.82;1.70;;;9.30;91.10;;;;;;4790760;29;20079;-58
2023/10/15 11:17:58;;;;;;;7.90;1.23;;;9.50;99.90;;;;;;4789440;30;20107;-58
2023/10/15 11:20:27;;;;;;;8.82;1.17;;;9.60;90.50;;;;;;4789873;30;20061;-57
2023/10/15 11:22:53;;;;;;;6.07;1.05;;;9.60;42.10;;;;;;4789945;30;20107;-58
2023/10/15 11:25:20;;;;;;;6.22;1.17;;;9.70;93.10;;;;;;4790561;30;20051;-58
2023/10/15 11:27:46;;;;;;;7.57;1.42;;;9.70;8.00;;;;;;4790397;29;20051;-58
2023/10/15 11:30:13;;;;;;;6.22;0.98;;;9.30;1.00;;;;;;4791665;29;20119;-57
2023/10/15 11:32:39;;;;;;;11.23;1.20;;;9.10;1.00;;;;;;4789038;30;20047;-58
2023/10/15 11:35:07;;;;;;;2.85;0.80;;;9.00;1.00;;;;;;4773729;30;20087;-57
2023/10/15 11:37:35;;;;;;;5.35;0.90;;;8.90;1.00;;;;;;4773986;30;20048;-58
2023/10/15 11:40:00;;;;;;;7.28;0.98;;;8.90;1.00;;;;;;4773681;30;20051;-58
2023/10/15 11:42:28;;;;;;;5.07;0.90;;;8.80;1.00;;;;;;4774257;30;20063;-57
2023/10/15 11:44:56;;;;;;;5.93;1.02;;;8.70;1.00;;;;;;4773604;30;20580;-57
2023/10/15 11:47:26;;;;;;;7.65;1.20;;;8.60;1.00;;;;;;4774326;30;20066;-57
2023/10/15 11:49:54;;;;;;;5.35;0.90;;;8.50;1.00;;;;;;4774319;30;20089;-57
2023/10/15 11:52:22;;;;;;;8.38;1.30;;;8.90;1.00;;;;;;4772145;30;20067;-57
2023/10/15 11:54:50;;;;;;;10.02;1.40;;;9.10;1.00;;;;;;4773399;30;20047;-57
2023/10/15 11:57:23;;;;;;;6.78;1.17;;;9.20;1.00;;;;;;4773009;30;20067;-58
2023/10/15 11:59:49;;;;;;;7.80;1.05;;;9.10;1.00;;;;;;4772649;30;20063;-57
2023/10/15 12:02:14;;;;;;;6.28;1.08;;;9.10;1.00;;;;;;4782415;30;20502;-57
2023/10/15 12:04:40;;;;;;;10.65;1.55;;;9.10;1.00;;;;;;4790983;29;20051;-57
2023/10/15 12:07:15;;;;;;;11.05;1.17;;;9.20;1.00;;;;;;4790636;29;20055;-57
2023/10/15 12:09:47;;;;;;;9.90;1.60;;;9.30;1.00;;;;;;4790327;29;20610;-57
2023/10/15 12:12:13;;;;;;;9.57;1.90;;;9.60;1.00;;;;;;4788608;30;20073;-57
2023/10/15 12:14:39;;;;;;;6.95;1.73;;;9.80;1.00;;;;;;4789205;30;20319;-57
2023/10/15 12:17:05;;;;;;;5.70;1.38;;;10.00;1.00;;;;;;4791127;29;20059;-57
2023/10/15 12:19:31;;;;;;;8.20;1.20;;;10.10;1.00;;;;;;4789543;30;20062;-57
2023/10/15 12:22:00;;;;;;;7.35;1.20;;;10.10;1.00;;;;;;4788391;30;20043;-57
2023/10/15 12:24:28;;;;;;;9.10;1.05;;;10.00;1.00;;;;;;4790800;29;20065;-58
2023/10/15 12:26:54;;;;;;;5.90;0.85;;;10.00;1.00;;;;;;4788010;30;20035;-57
2023/10/15 12:29:28;;;;;;;6.88;0.93;;;10.10;1.00;;;;;;4790481;30;20496;-57
2023/10/15 12:31:57;;;;;;;7.90;0.90;;;10.10;1.00;;;;;;4787405;30;20051;-58
2023/10/15 12:34:24;;;;;;;5.35;0.75;;;10.10;1.00;;;;;;4790261;30;20051;-57
2023/10/15 12:36:52;;;;;;;5.30;1.50;;;10.30;1.00;;;;;;4790294;30;20072;-57
2023/10/15 12:39:21;;;;;;;3.95;0.77;;;10.30;1.00;;;;;;4789553;29;20093;-57
2023/10/15 12:41:48;;;;;;;6.50;0.90;;;10.30;1.00;;;;;;4790096;29;20520;-57
2023/10/15 12:44:14;;;;;;;3.63;0.77;;;10.30;1.00;;;;;;4789740;29;20084;-57
2023/10/15 12:46:40;;;;;;;5.47;0.80;;;10.30;1.00;;;;;;4790818;29;20084;-57
2023/10/15 12:49:08;;;;;;;5.97;1.00;;;10.10;1.00;;;;;;4788963;30;20062;-57
2023/10/15 12:51:34;;;;;;;6.68;0.90;;;10.10;1.00;;;;;;4790571;29;20051;-57
2023/10/15 12:54:00;;;;;;;6.18;1.10;;;9.90;1.00;;;;;;4789661;30;20483;-57
2023/10/15 12:56:29;;;;;;;6.32;1.00;;;9.80;1.00;;;;;;4789692;29;20063;-57
2023/10/15 12:58:54;;;;;;;8.98;1.30;;;9.80;1.00;;;;;;4790426;29;20587;-57
2023/10/15 13:01:20;;;;;;;12.48;1.58;;;9.70;1.00;;;;;;4790032;30;20057;-58
2023/10/15 13:03:49;;;;;;;7.78;1.20;;;9.60;1.00;;;;;;4790708;29;20111;-57
2023/10/15 13:06:15;;;;;;;6.47;1.30;;;9.60;1.00;;;;;;4790295;30;20135;-57
2023/10/15 13:08:42;;;;;;;6.95;1.23;;;9.70;1.00;;;;;;4790308;29;20054;-57
2023/10/15 13:11:11;;;;;;;5.60;1.50;;;9.80;1.00;;;;;;4790362;29;20070;-57
2023/10/15 13:13:37;;;;;;;3.15;0.80;;;9.90;1.00;;;;;;4789988;29;20517;-57
2023/10/15 13:16:03;;;;;;;4.50;0.65;;;10.10;1.00;;;;;;4774117;30;20039;-57
2023/10/15 13:18:30;;;;;;;3.78;1.00;;;10.30;1.00;;;;;;4789957;29;20497;-58
2023/10/15 13:20:57;;;;;;;5.68;0.98;;;10.30;1.00;;;;;;4790266;29;20089;-57
2023/10/15 13:23:23;;;;;;;8.75;1.00;;;10.40;1.00;;;;;;4789872;29;20073;-57
2023/10/15 13:25:49;;;;;;;4.97;0.90;;;10.40;1.00;;;;;;4788998;30;20497;-57
2023/10/15 13:28:15;;;;;;;4.72;0.95;;;10.50;1.00;;;;;;4790229;29;20071;-57
2023/10/15 13:30:41;;;;;;;6.93;0.90;;;10.50;1.00;;;;;;4788214;29;20055;-57
2023/10/15 13:33:07;;;;;;;5.97;0.80;;;10.60;1.00;;;;;;4789256;29;20132;-57
2023/10/15 13:35:35;;;;;;;5.97;1.00;;;10.60;1.00;;;;;;4790075;29;20051;-57
2023/10/15 13:38:01;;;;;;;5.60;1.15;;;10.60;1.00;;;;;;4790306;29;20433;-57
2023/10/15 13:40:27;;;;;;;6.25;1.00;;;10.40;1.00;;;;;;4773719;30;20078;-57